Aviation Digital Data Service (ADDS)

Output produced by METARs form (1845 UTC 04 March 2015)
found at http://aviationweather.gov/adds/metars/
 
KHYA 041720Z 0418/0518 25010KT 3SM -SHRA BR OVC004 
     FM050200 27006KT 3SM -RASN OVC006 
     FM050600 30006KT 1SM -SNRA OVC008 
     FM050800 30007KT 1SM -SNPL OVC008 
     FM051600 34010KT P6SM OVC015